sensor_id;sensor_type;location;lat;lon;timestamp;P1;durP1;ratioP1;P2;durP2;ratioP2
23155;SDS011;11746;50.876;4.246;2024-03-25T00:02:00;5.85;;;3.60;;
23155;SDS011;11746;50.876;4.246;2024-03-25T00:04:27;5.03;;;3.80;;
23155;SDS011;11746;50.876;4.246;2024-03-25T00:06:52;7.20;;;3.58;;
23155;SDS011;11746;50.876;4.246;2024-03-25T00:09:20;4.68;;;3.40;;
23155;SDS011;11746;50.876;4.246;2024-03-25T00:11:48;4.00;;;3.42;;
23155;SDS011;11746;50.876;4.246;2024-03-25T00:14:14;4.95;;;3.03;;
23155;SDS011;11746;50.876;4.246;2024-03-25T00:16:40;6.63;;;3.30;;
23155;SDS011;11746;50.876;4.246;2024-03-25T00:19:11;5.13;;;3.15;;
23155;SDS011;11746;50.876;4.246;2024-03-25T00:21:37;5.75;;;3.75;;
23155;SDS011;11746;50.876;4.246;2024-03-25T00:24:06;4.90;;;3.63;;
23155;SDS011;11746;50.876;4.246;2024-03-25T00:26:35;4.40;;;3.00;;
23155;SDS011;11746;50.876;4.246;2024-03-25T00:29:00;8.20;;;3.70;;
23155;SDS011;11746;50.876;4.246;2024-03-25T00:31:26;5.88;;;3.50;;
23155;SDS011;11746;50.876;4.246;2024-03-25T00:33:52;5.20;;;3.38;;
23155;SDS011;11746;50.876;4.246;2024-03-25T00:36:17;5.90;;;3.40;;
23155;SDS011;11746;50.876;4.246;2024-03-25T00:38:43;5.07;;;3.10;;
23155;SDS011;11746;50.876;4.246;2024-03-25T00:41:09;6.47;;;3.10;;
23155;SDS011;11746;50.876;4.246;2024-03-25T00:43:35;4.93;;;3.30;;
23155;SDS011;11746;50.876;4.246;2024-03-25T00:46:02;6.13;;;3.30;;
23155;SDS011;11746;50.876;4.246;2024-03-25T00:48:34;4.03;;;2.92;;
23155;SDS011;11746;50.876;4.246;2024-03-25T00:50:59;5.47;;;3.10;;
23155;SDS011;11746;50.876;4.246;2024-03-25T00:53:26;4.03;;;2.90;;
23155;SDS011;11746;50.876;4.246;2024-03-25T00:55:54;6.30;;;3.20;;
23155;SDS011;11746;50.876;4.246;2024-03-25T00:58:20;5.80;;;3.25;;
23155;SDS011;11746;50.876;4.246;2024-03-25T01:00:48;4.03;;;2.88;;
23155;SDS011;11746;50.876;4.246;2024-03-25T01:03:14;4.78;;;2.83;;
23155;SDS011;11746;50.876;4.246;2024-03-25T01:05:40;5.90;;;2.88;;
23155;SDS011;11746;50.876;4.246;2024-03-25T01:08:06;6.95;;;3.38;;
23155;SDS011;11746;50.876;4.246;2024-03-25T01:10:37;5.30;;;3.28;;
23155;SDS011;11746;50.876;4.246;2024-03-25T01:13:02;4.90;;;3.25;;
23155;SDS011;11746;50.876;4.246;2024-03-25T01:15:28;5.72;;;3.03;;
23155;SDS011;11746;50.876;4.246;2024-03-25T01:17:55;5.40;;;3.25;;
23155;SDS011;11746;50.876;4.246;2024-03-25T01:20:22;3.70;;;2.78;;
23155;SDS011;11746;50.876;4.246;2024-03-25T01:22:48;4.15;;;2.95;;
23155;SDS011;11746;50.876;4.246;2024-03-25T01:25:17;4.72;;;3.00;;
23155;SDS011;11746;50.876;4.246;2024-03-25T01:27:44;5.68;;;3.00;;
23155;SDS011;11746;50.876;4.246;2024-03-25T01:30:10;4.32;;;2.80;;
23155;SDS011;11746;50.876;4.246;2024-03-25T01:32:39;8.23;;;3.35;;
23155;SDS011;11746;50.876;4.246;2024-03-25T01:35:08;4.20;;;2.65;;
23155;SDS011;11746;50.876;4.246;2024-03-25T01:37:36;6.95;;;3.55;;
23155;SDS011;11746;50.876;4.246;2024-03-25T01:40:04;8.32;;;3.35;;
23155;SDS011;11746;50.876;4.246;2024-03-25T01:42:33;5.53;;;3.00;;
23155;SDS011;11746;50.876;4.246;2024-03-25T01:45:01;4.53;;;3.00;;
23155;SDS011;11746;50.876;4.246;2024-03-25T01:47:31;5.65;;;3.00;;
23155;SDS011;11746;50.876;4.246;2024-03-25T01:50:00;7.78;;;3.50;;
23155;SDS011;11746;50.876;4.246;2024-03-25T01:52:28;5.65;;;3.05;;
23155;SDS011;11746;50.876;4.246;2024-03-25T01:54:55;7.60;;;3.50;;
23155;SDS011;11746;50.876;4.246;2024-03-25T01:57:22;4.95;;;3.08;;
23155;SDS011;11746;50.876;4.246;2024-03-25T01:59:48;7.18;;;3.40;;
23155;SDS011;11746;50.876;4.246;2024-03-25T02:02:16;8.52;;;4.60;;
23155;SDS011;11746;50.876;4.246;2024-03-25T02:04:42;6.50;;;3.67;;
23155;SDS011;11746;50.876;4.246;2024-03-25T02:07:13;9.68;;;4.25;;
23155;SDS011;11746;50.876;4.246;2024-03-25T02:09:41;7.15;;;3.47;;
23155;SDS011;11746;50.876;4.246;2024-03-25T02:12:08;5.22;;;3.55;;
23155;SDS011;11746;50.876;4.246;2024-03-25T02:14:36;8.40;;;4.13;;
23155;SDS011;11746;50.876;4.246;2024-03-25T02:17:05;5.25;;;3.70;;
23155;SDS011;11746;50.876;4.246;2024-03-25T02:19:33;6.65;;;4.10;;
23155;SDS011;11746;50.876;4.246;2024-03-25T02:22:07;6.18;;;3.97;;
23155;SDS011;11746;50.876;4.246;2024-03-25T02:24:32;6.47;;;3.80;;
23155;SDS011;11746;50.876;4.246;2024-03-25T02:27:01;7.43;;;4.00;;
23155;SDS011;11746;50.876;4.246;2024-03-25T02:29:34;7.28;;;4.07;;
23155;SDS011;11746;50.876;4.246;2024-03-25T02:32:03;5.88;;;3.83;;
23155;SDS011;11746;50.876;4.246;2024-03-25T02:34:37;7.07;;;4.07;;
23155;SDS011;11746;50.876;4.246;2024-03-25T02:37:09;6.20;;;4.07;;
23155;SDS011;11746;50.876;4.246;2024-03-25T02:39:39;7.75;;;4.22;;
23155;SDS011;11746;50.876;4.246;2024-03-25T02:42:07;6.55;;;4.32;;
23155;SDS011;11746;50.876;4.246;2024-03-25T02:44:37;9.18;;;4.03;;
23155;SDS011;11746;50.876;4.246;2024-03-25T02:47:03;10.55;;;5.35;;
23155;SDS011;11746;50.876;4.246;2024-03-25T02:49:34;9.77;;;4.97;;
23155;SDS011;11746;50.876;4.246;2024-03-25T02:51:59;6.97;;;4.30;;
23155;SDS011;11746;50.876;4.246;2024-03-25T02:54:28;6.95;;;4.53;;
23155;SDS011;11746;50.876;4.246;2024-03-25T02:57:04;13.73;;;5.53;;
23155;SDS011;11746;50.876;4.246;2024-03-25T02:59:33;11.32;;;5.18;;
23155;SDS011;11746;50.876;4.246;2024-03-25T03:02:00;9.82;;;5.07;;
23155;SDS011;11746;50.876;4.246;2024-03-25T03:04:26;10.20;;;5.20;;
23155;SDS011;11746;50.876;4.246;2024-03-25T03:06:52;14.18;;;5.60;;
23155;SDS011;11746;50.876;4.246;2024-03-25T03:09:17;11.60;;;5.18;;
23155;SDS011;11746;50.876;4.246;2024-03-25T03:11:48;11.38;;;5.40;;
23155;SDS011;11746;50.876;4.246;2024-03-25T03:14:14;9.50;;;5.30;;
23155;SDS011;11746;50.876;4.246;2024-03-25T03:16:44;8.07;;;4.72;;
23155;SDS011;11746;50.876;4.246;2024-03-25T03:19:11;11.75;;;5.88;;
23155;SDS011;11746;50.876;4.246;2024-03-25T03:21:40;9.80;;;5.82;;
23155;SDS011;11746;50.876;4.246;2024-03-25T03:24:06;14.35;;;5.22;;
23155;SDS011;11746;50.876;4.246;2024-03-25T03:26:35;10.32;;;5.57;;
23155;SDS011;11746;50.876;4.246;2024-03-25T03:29:00;13.32;;;5.82;;
23155;SDS011;11746;50.876;4.246;2024-03-25T03:31:30;17.35;;;7.18;;
23155;SDS011;11746;50.876;4.246;2024-03-25T03:33:56;11.70;;;5.68;;
23155;SDS011;11746;50.876;4.246;2024-03-25T03:36:23;15.65;;;5.47;;
23155;SDS011;11746;50.876;4.246;2024-03-25T03:38:54;15.10;;;6.78;;
23155;SDS011;11746;50.876;4.246;2024-03-25T03:41:20;16.25;;;7.40;;
23155;SDS011;11746;50.876;4.246;2024-03-25T03:43:49;18.58;;;7.38;;
23155;SDS011;11746;50.876;4.246;2024-03-25T03:46:14;19.52;;;7.22;;
23155;SDS011;11746;50.876;4.246;2024-03-25T03:48:40;20.38;;;7.18;;
23155;SDS011;11746;50.876;4.246;2024-03-25T03:51:06;13.13;;;6.63;;
23155;SDS011;11746;50.876;4.246;2024-03-25T03:53:32;20.38;;;7.70;;
23155;SDS011;11746;50.876;4.246;2024-03-25T03:56:00;14.98;;;6.97;;
23155;SDS011;11746;50.876;4.246;2024-03-25T03:58:27;19.10;;;8.45;;
23155;SDS011;11746;50.876;4.246;2024-03-25T04:00:56;18.98;;;7.47;;
23155;SDS011;11746;50.876;4.246;2024-03-25T04:03:23;17.00;;;8.18;;
23155;SDS011;11746;50.876;4.246;2024-03-25T04:05:50;22.10;;;9.30;;
23155;SDS011;11746;50.876;4.246;2024-03-25T04:08:16;19.48;;;8.13;;
23155;SDS011;11746;50.876;4.246;2024-03-25T04:10:43;18.65;;;7.20;;
23155;SDS011;11746;50.876;4.246;2024-03-25T04:13:09;18.77;;;7.70;;
23155;SDS011;11746;50.876;4.246;2024-03-25T04:15:38;19.35;;;8.55;;
23155;SDS011;11746;50.876;4.246;2024-03-25T04:18:08;17.52;;;8.35;;
23155;SDS011;11746;50.876;4.246;2024-03-25T04:20:40;23.88;;;9.13;;
23155;SDS011;11746;50.876;4.246;2024-03-25T04:23:09;21.98;;;9.13;;
23155;SDS011;11746;50.876;4.246;2024-03-25T04:25:37;19.25;;;9.63;;
23155;SDS011;11746;50.876;4.246;2024-03-25T04:28:03;19.27;;;8.70;;
23155;SDS011;11746;50.876;4.246;2024-03-25T04:30:31;18.42;;;8.95;;
23155;SDS011;11746;50.876;4.246;2024-03-25T04:32:57;22.77;;;9.15;;
23155;SDS011;11746;50.876;4.246;2024-03-25T04:35:26;18.92;;;9.05;;
23155;SDS011;11746;50.876;4.246;2024-03-25T04:37:55;20.35;;;10.00;;
23155;SDS011;11746;50.876;4.246;2024-03-25T04:40:21;18.10;;;8.32;;
23155;SDS011;11746;50.876;4.246;2024-03-25T04:42:48;26.33;;;11.55;;
23155;SDS011;11746;50.876;4.246;2024-03-25T04:45:14;23.13;;;10.95;;
23155;SDS011;11746;50.876;4.246;2024-03-25T04:47:41;22.30;;;9.75;;
23155;SDS011;11746;50.876;4.246;2024-03-25T04:50:09;27.30;;;10.95;;
23155;SDS011;11746;50.876;4.246;2024-03-25T04:52:35;28.27;;;11.70;;
23155;SDS011;11746;50.876;4.246;2024-03-25T04:55:03;25.77;;;10.52;;
23155;SDS011;11746;50.876;4.246;2024-03-25T04:57:29;24.95;;;12.20;;
23155;SDS011;11746;50.876;4.246;2024-03-25T04:59:54;21.55;;;10.27;;
23155;SDS011;11746;50.876;4.246;2024-03-25T05:02:22;24.75;;;10.48;;
23155;SDS011;11746;50.876;4.246;2024-03-25T05:04:49;23.13;;;10.40;;
23155;SDS011;11746;50.876;4.246;2024-03-25T05:07:15;25.38;;;10.95;;
23155;SDS011;11746;50.876;4.246;2024-03-25T05:09:43;25.90;;;11.43;;
23155;SDS011;11746;50.876;4.246;2024-03-25T05:12:10;27.25;;;10.98;;
23155;SDS011;11746;50.876;4.246;2024-03-25T05:14:38;21.33;;;10.55;;
23155;SDS011;11746;50.876;4.246;2024-03-25T05:17:03;22.75;;;10.63;;
23155;SDS011;11746;50.876;4.246;2024-03-25T05:19:30;25.40;;;10.65;;
23155;SDS011;11746;50.876;4.246;2024-03-25T05:21:56;25.05;;;10.65;;
23155;SDS011;11746;50.876;4.246;2024-03-25T05:24:24;19.77;;;10.40;;
23155;SDS011;11746;50.876;4.246;2024-03-25T05:26:53;22.60;;;11.10;;
23155;SDS011;11746;50.876;4.246;2024-03-25T05:29:21;20.35;;;10.38;;
23155;SDS011;11746;50.876;4.246;2024-03-25T05:31:59;21.52;;;10.07;;
23155;SDS011;11746;50.876;4.246;2024-03-25T05:34:29;22.95;;;9.65;;
23155;SDS011;11746;50.876;4.246;2024-03-25T05:36:58;17.10;;;8.85;;
23155;SDS011;11746;50.876;4.246;2024-03-25T05:39:26;25.60;;;11.13;;
23155;SDS011;11746;50.876;4.246;2024-03-25T05:41:52;19.45;;;10.10;;
23155;SDS011;11746;50.876;4.246;2024-03-25T05:44:33;24.08;;;10.35;;
23155;SDS011;11746;50.876;4.246;2024-03-25T05:47:04;23.70;;;10.43;;
23155;SDS011;11746;50.876;4.246;2024-03-25T05:49:30;23.90;;;10.65;;
23155;SDS011;11746;50.876;4.246;2024-03-25T05:51:55;21.08;;;10.70;;
23155;SDS011;11746;50.876;4.246;2024-03-25T05:54:21;29.02;;;12.30;;
23155;SDS011;11746;50.876;4.246;2024-03-25T05:56:47;25.65;;;11.20;;
23155;SDS011;11746;50.876;4.246;2024-03-25T05:59:21;25.10;;;12.52;;
23155;SDS011;11746;50.876;4.246;2024-03-25T06:01:48;27.13;;;12.27;;
23155;SDS011;11746;50.876;4.246;2024-03-25T06:04:15;24.92;;;11.77;;
23155;SDS011;11746;50.876;4.246;2024-03-25T06:06:41;27.35;;;12.95;;
23155;SDS011;11746;50.876;4.246;2024-03-25T06:09:06;23.98;;;12.88;;
23155;SDS011;11746;50.876;4.246;2024-03-25T06:11:36;31.70;;;13.10;;
23155;SDS011;11746;50.876;4.246;2024-03-25T06:14:03;34.35;;;13.25;;
23155;SDS011;11746;50.876;4.246;2024-03-25T06:16:30;28.20;;;12.23;;
23155;SDS011;11746;50.876;4.246;2024-03-25T06:18:59;26.55;;;12.88;;
23155;SDS011;11746;50.876;4.246;2024-03-25T06:21:27;27.15;;;12.55;;
23155;SDS011;11746;50.876;4.246;2024-03-25T06:23:57;24.67;;;11.98;;
23155;SDS011;11746;50.876;4.246;2024-03-25T06:26:26;25.90;;;12.82;;
23155;SDS011;11746;50.876;4.246;2024-03-25T06:28:53;29.65;;;12.70;;
23155;SDS011;11746;50.876;4.246;2024-03-25T06:31:21;26.65;;;12.10;;
23155;SDS011;11746;50.876;4.246;2024-03-25T06:34:06;26.40;;;11.20;;
23155;SDS011;11746;50.876;4.246;2024-03-25T06:36:43;28.30;;;10.88;;
23155;SDS011;11746;50.876;4.246;2024-03-25T06:39:10;25.10;;;11.73;;
23155;SDS011;11746;50.876;4.246;2024-03-25T06:41:42;27.70;;;12.55;;
23155;SDS011;11746;50.876;4.246;2024-03-25T06:44:08;30.35;;;12.35;;
23155;SDS011;11746;50.876;4.246;2024-03-25T06:46:38;28.55;;;11.80;;
23155;SDS011;11746;50.876;4.246;2024-03-25T06:49:12;29.85;;;12.07;;
23155;SDS011;11746;50.876;4.246;2024-03-25T06:51:38;30.92;;;12.90;;
23155;SDS011;11746;50.876;4.246;2024-03-25T06:54:04;32.60;;;13.38;;
23155;SDS011;11746;50.876;4.246;2024-03-25T06:56:31;31.25;;;11.68;;
23155;SDS011;11746;50.876;4.246;2024-03-25T06:58:56;25.13;;;11.63;;
23155;SDS011;11746;50.876;4.246;2024-03-25T07:01:23;29.42;;;11.88;;
23155;SDS011;11746;50.876;4.246;2024-03-25T07:03:49;25.88;;;11.73;;
23155;SDS011;11746;50.876;4.246;2024-03-25T07:06:18;23.98;;;11.40;;
23155;SDS011;11746;50.876;4.246;2024-03-25T07:08:46;27.05;;;11.65;;
23155;SDS011;11746;50.876;4.246;2024-03-25T07:11:12;25.23;;;11.38;;
23155;SDS011;11746;50.876;4.246;2024-03-25T07:13:43;20.30;;;10.70;;
23155;SDS011;11746;50.876;4.246;2024-03-25T07:16:09;26.08;;;11.43;;
23155;SDS011;11746;50.876;4.246;2024-03-25T07:18:35;26.65;;;11.13;;
23155;SDS011;11746;50.876;4.246;2024-03-25T07:21:00;25.10;;;10.52;;
23155;SDS011;11746;50.876;4.246;2024-03-25T07:23:31;22.38;;;10.13;;
23155;SDS011;11746;50.876;4.246;2024-03-25T07:25:56;27.45;;;10.73;;
23155;SDS011;11746;50.876;4.246;2024-03-25T07:28:22;22.05;;;10.48;;
23155;SDS011;11746;50.876;4.246;2024-03-25T07:30:49;20.90;;;10.02;;
23155;SDS011;11746;50.876;4.246;2024-03-25T07:33:17;24.38;;;9.68;;
23155;SDS011;11746;50.876;4.246;2024-03-25T07:35:44;22.58;;;10.70;;
23155;SDS011;11746;50.876;4.246;2024-03-25T07:38:10;25.15;;;10.20;;
23155;SDS011;11746;50.876;4.246;2024-03-25T07:40:38;17.77;;;9.23;;
23155;SDS011;11746;50.876;4.246;2024-03-25T07:43:07;22.23;;;9.13;;
23155;SDS011;11746;50.876;4.246;2024-03-25T07:45:33;20.05;;;9.27;;
23155;SDS011;11746;50.876;4.246;2024-03-25T07:48:01;21.00;;;8.93;;
23155;SDS011;11746;50.876;4.246;2024-03-25T07:50:26;24.30;;;9.50;;
23155;SDS011;11746;50.876;4.246;2024-03-25T07:52:52;19.95;;;8.95;;
23155;SDS011;11746;50.876;4.246;2024-03-25T07:55:18;24.77;;;9.23;;
23155;SDS011;11746;50.876;4.246;2024-03-25T07:57:43;19.58;;;8.63;;
23155;SDS011;11746;50.876;4.246;2024-03-25T08:00:09;18.15;;;7.90;;
23155;SDS011;11746;50.876;4.246;2024-03-25T08:02:35;23.98;;;9.32;;
23155;SDS011;11746;50.876;4.246;2024-03-25T08:05:00;19.35;;;8.65;;
23155;SDS011;11746;50.876;4.246;2024-03-25T08:07:26;22.05;;;8.55;;
23155;SDS011;11746;50.876;4.246;2024-03-25T08:09:54;24.60;;;10.07;;
23155;SDS011;11746;50.876;4.246;2024-03-25T08:12:22;21.70;;;9.32;;
23155;SDS011;11746;50.876;4.246;2024-03-25T08:14:47;20.55;;;8.48;;
23155;SDS011;11746;50.876;4.246;2024-03-25T08:17:15;24.55;;;9.85;;
23155;SDS011;11746;50.876;4.246;2024-03-25T08:19:41;21.80;;;9.13;;
23155;SDS011;11746;50.876;4.246;2024-03-25T08:22:06;25.15;;;8.77;;
23155;SDS011;11746;50.876;4.246;2024-03-25T08:24:32;18.00;;;9.75;;
23155;SDS011;11746;50.876;4.246;2024-03-25T08:26:58;21.60;;;9.23;;
23155;SDS011;11746;50.876;4.246;2024-03-25T08:29:23;26.98;;;11.60;;
23155;SDS011;11746;50.876;4.246;2024-03-25T08:31:49;24.02;;;11.15;;
23155;SDS011;11746;50.876;4.246;2024-03-25T08:34:14;19.92;;;10.93;;
23155;SDS011;11746;50.876;4.246;2024-03-25T08:36:42;22.83;;;10.45;;
23155;SDS011;11746;50.876;4.246;2024-03-25T08:39:10;24.08;;;9.98;;
23155;SDS011;11746;50.876;4.246;2024-03-25T08:41:36;21.05;;;10.25;;
23155;SDS011;11746;50.876;4.246;2024-03-25T08:44:07;27.05;;;10.55;;
23155;SDS011;11746;50.876;4.246;2024-03-25T08:46:32;19.20;;;9.55;;
23155;SDS011;11746;50.876;4.246;2024-03-25T08:49:00;22.52;;;10.75;;
23155;SDS011;11746;50.876;4.246;2024-03-25T08:51:26;23.02;;;10.13;;
23155;SDS011;11746;50.876;4.246;2024-03-25T08:53:54;18.10;;;9.20;;
23155;SDS011;11746;50.876;4.246;2024-03-25T08:56:19;24.65;;;10.32;;
23155;SDS011;11746;50.876;4.246;2024-03-25T08:58:45;19.63;;;9.70;;
23155;SDS011;11746;50.876;4.246;2024-03-25T09:01:10;18.30;;;8.85;;
23155;SDS011;11746;50.876;4.246;2024-03-25T09:03:41;17.17;;;8.02;;
23155;SDS011;11746;50.876;4.246;2024-03-25T09:06:10;20.15;;;7.05;;
23155;SDS011;11746;50.876;4.246;2024-03-25T09:08:37;17.65;;;7.60;;
23155;SDS011;11746;50.876;4.246;2024-03-25T09:11:26;17.27;;;7.90;;
23155;SDS011;11746;50.876;4.246;2024-03-25T09:13:52;21.20;;;7.35;;
23155;SDS011;11746;50.876;4.246;2024-03-25T09:16:18;19.63;;;6.88;;
23155;SDS011;11746;50.876;4.246;2024-03-25T09:18:46;14.20;;;7.25;;
23155;SDS011;11746;50.876;4.246;2024-03-25T09:21:11;18.35;;;6.85;;
23155;SDS011;11746;50.876;4.246;2024-03-25T09:23:38;19.05;;;7.43;;
23155;SDS011;11746;50.876;4.246;2024-03-25T09:26:04;14.55;;;6.97;;
23155;SDS011;11746;50.876;4.246;2024-03-25T09:28:32;18.02;;;6.90;;
23155;SDS011;11746;50.876;4.246;2024-03-25T09:30:57;15.27;;;6.72;;
23155;SDS011;11746;50.876;4.246;2024-03-25T09:33:23;15.95;;;7.30;;
23155;SDS011;11746;50.876;4.246;2024-03-25T09:35:48;22.33;;;6.97;;
23155;SDS011;11746;50.876;4.246;2024-03-25T09:38:14;13.75;;;6.65;;
23155;SDS011;11746;50.876;4.246;2024-03-25T09:40:40;15.88;;;6.40;;
23155;SDS011;11746;50.876;4.246;2024-03-25T09:43:20;17.17;;;6.28;;
23155;SDS011;11746;50.876;4.246;2024-03-25T09:45:54;18.15;;;6.50;;
23155;SDS011;11746;50.876;4.246;2024-03-25T09:48:27;16.63;;;7.00;;
23155;SDS011;11746;50.876;4.246;2024-03-25T09:50:55;15.55;;;6.68;;
23155;SDS011;11746;50.876;4.246;2024-03-25T09:53:21;12.65;;;6.25;;
23155;SDS011;11746;50.876;4.246;2024-03-25T09:55:48;16.35;;;5.72;;
23155;SDS011;11746;50.876;4.246;2024-03-25T09:58:18;13.32;;;6.10;;
23155;SDS011;11746;50.876;4.246;2024-03-25T10:00:47;15.57;;;5.93;;
23155;SDS011;11746;50.876;4.246;2024-03-25T10:03:15;12.45;;;5.45;;
23155;SDS011;11746;50.876;4.246;2024-03-25T10:05:41;11.52;;;5.10;;
23155;SDS011;11746;50.876;4.246;2024-03-25T10:08:08;17.95;;;6.00;;
23155;SDS011;11746;50.876;4.246;2024-03-25T10:10:36;14.93;;;5.35;;
23155;SDS011;11746;50.876;4.246;2024-03-25T10:13:05;16.23;;;5.03;;
23155;SDS011;11746;50.876;4.246;2024-03-25T10:15:32;11.55;;;5.05;;
23155;SDS011;11746;50.876;4.246;2024-03-25T10:18:03;9.38;;;4.00;;
23155;SDS011;11746;50.876;4.246;2024-03-25T10:20:29;9.73;;;4.70;;
23155;SDS011;11746;50.876;4.246;2024-03-25T10:22:54;11.13;;;4.75;;
23155;SDS011;11746;50.876;4.246;2024-03-25T10:25:28;9.82;;;4.18;;
23155;SDS011;11746;50.876;4.246;2024-03-25T10:28:01;11.85;;;4.00;;
23155;SDS011;11746;50.876;4.246;2024-03-25T10:30:28;13.43;;;5.00;;
23155;SDS011;11746;50.876;4.246;2024-03-25T10:33:03;10.50;;;5.10;;
23155;SDS011;11746;50.876;4.246;2024-03-25T10:35:35;14.77;;;4.60;;
23155;SDS011;11746;50.876;4.246;2024-03-25T10:38:04;10.57;;;4.97;;
23155;SDS011;11746;50.876;4.246;2024-03-25T10:40:34;11.40;;;4.97;;
23155;SDS011;11746;50.876;4.246;2024-03-25T10:43:02;10.73;;;4.40;;
23155;SDS011;11746;50.876;4.246;2024-03-25T10:45:46;8.73;;;3.97;;
23155;SDS011;11746;50.876;4.246;2024-03-25T10:51:38;10.13;;;4.03;;
23155;SDS011;11746;50.876;4.246;2024-03-25T10:54:17;10.27;;;3.95;;
23155;SDS011;11746;50.876;4.246;2024-03-25T10:56:44;8.05;;;3.72;;
23155;SDS011;11746;50.876;4.246;2024-03-25T10:59:16;10.73;;;4.13;;
23155;SDS011;11746;50.876;4.246;2024-03-25T11:01:46;11.05;;;3.15;;
23155;SDS011;11746;50.876;4.246;2024-03-25T11:04:14;5.50;;;3.00;;
23155;SDS011;11746;50.876;4.246;2024-03-25T11:06:42;11.63;;;2.85;;
23155;SDS011;11746;50.876;4.246;2024-03-25T11:09:08;5.57;;;2.85;;
23155;SDS011;11746;50.876;4.246;2024-03-25T11:11:34;8.40;;;3.45;;
23155;SDS011;11746;50.876;4.246;2024-03-25T11:14:03;6.53;;;2.80;;
23155;SDS011;11746;50.876;4.246;2024-03-25T11:16:41;7.10;;;2.75;;
23155;SDS011;11746;50.876;4.246;2024-03-25T11:19:10;6.03;;;2.80;;
23155;SDS011;11746;50.876;4.246;2024-03-25T11:21:37;4.85;;;2.30;;
23155;SDS011;11746;50.876;4.246;2024-03-25T11:24:06;3.42;;;1.73;;
23155;SDS011;11746;50.876;4.246;2024-03-25T11:26:40;4.70;;;2.25;;
23155;SDS011;11746;50.876;4.246;2024-03-25T11:29:06;5.45;;;2.40;;
23155;SDS011;11746;50.876;4.246;2024-03-25T11:31:35;9.60;;;2.72;;
23155;SDS011;11746;50.876;4.246;2024-03-25T11:34:04;7.13;;;3.05;;
23155;SDS011;11746;50.876;4.246;2024-03-25T11:36:30;6.05;;;2.42;;
23155;SDS011;11746;50.876;4.246;2024-03-25T11:38:58;7.93;;;2.72;;
23155;SDS011;11746;50.876;4.246;2024-03-25T11:41:33;5.85;;;2.10;;
23155;SDS011;11746;50.876;4.246;2024-03-25T11:44:02;5.13;;;1.85;;
23155;SDS011;11746;50.876;4.246;2024-03-25T11:46:33;6.65;;;2.05;;
23155;SDS011;11746;50.876;4.246;2024-03-25T11:49:12;5.60;;;1.83;;
23155;SDS011;11746;50.876;4.246;2024-03-25T11:51:39;7.00;;;2.03;;
23155;SDS011;11746;50.876;4.246;2024-03-25T11:54:12;6.63;;;2.10;;
23155;SDS011;11746;50.876;4.246;2024-03-25T11:56:38;6.53;;;2.40;;
23155;SDS011;11746;50.876;4.246;2024-03-25T11:59:04;7.97;;;2.42;;
23155;SDS011;11746;50.876;4.246;2024-03-25T12:01:32;5.95;;;2.85;;
23155;SDS011;11746;50.876;4.246;2024-03-25T12:04:08;5.18;;;1.80;;
23155;SDS011;11746;50.876;4.246;2024-03-25T12:06:35;6.50;;;1.80;;
23155;SDS011;11746;50.876;4.246;2024-03-25T12:09:01;6.90;;;2.28;;
23155;SDS011;11746;50.876;4.246;2024-03-25T12:11:48;3.50;;;2.03;;
23155;SDS011;11746;50.876;4.246;2024-03-25T12:14:14;7.90;;;2.10;;
23155;SDS011;11746;50.876;4.246;2024-03-25T12:16:42;4.10;;;1.70;;
23155;SDS011;11746;50.876;4.246;2024-03-25T12:19:28;4.80;;;2.22;;
23155;SDS011;11746;50.876;4.246;2024-03-25T12:22:04;4.57;;;1.80;;
23155;SDS011;11746;50.876;4.246;2024-03-25T12:24:34;4.35;;;1.52;;
23155;SDS011;11746;50.876;4.246;2024-03-25T12:27:01;4.53;;;1.83;;
23155;SDS011;11746;50.876;4.246;2024-03-25T12:29:28;4.95;;;1.90;;
23155;SDS011;11746;50.876;4.246;2024-03-25T12:32:09;4.55;;;1.90;;
23155;SDS011;11746;50.876;4.246;2024-03-25T12:37:28;4.93;;;2.00;;
23155;SDS011;11746;50.876;4.246;2024-03-25T12:40:10;4.30;;;1.90;;
23155;SDS011;11746;50.876;4.246;2024-03-25T12:43:24;6.00;;;1.83;;
23155;SDS011;11746;50.876;4.246;2024-03-25T12:46:10;4.85;;;1.70;;
23155;SDS011;11746;50.876;4.246;2024-03-25T12:48:54;3.85;;;1.55;;
23155;SDS011;11746;50.876;4.246;2024-03-25T12:51:49;4.00;;;2.03;;
23155;SDS011;11746;50.876;4.246;2024-03-25T12:54:38;3.40;;;1.73;;
23155;SDS011;11746;50.876;4.246;2024-03-25T12:57:34;2.83;;;1.38;;
23155;SDS011;11746;50.876;4.246;2024-03-25T13:00:20;3.58;;;1.30;;
23155;SDS011;11746;50.876;4.246;2024-03-25T13:03:39;5.45;;;2.00;;
23155;SDS011;11746;50.876;4.246;2024-03-25T13:06:50;3.92;;;1.20;;
23155;SDS011;11746;50.876;4.246;2024-03-25T13:09:46;5.80;;;1.10;;
23155;SDS011;11746;50.876;4.246;2024-03-25T13:12:54;7.68;;;1.85;;
23155;SDS011;11746;50.876;4.246;2024-03-25T13:15:50;5.07;;;1.52;;
23155;SDS011;11746;50.876;4.246;2024-03-25T13:18:34;5.15;;;1.58;;
23155;SDS011;11746;50.876;4.246;2024-03-25T13:21:41;3.60;;;1.27;;
23155;SDS011;11746;50.876;4.246;2024-03-25T13:24:11;4.72;;;1.60;;
23155;SDS011;11746;50.876;4.246;2024-03-25T13:26:41;7.15;;;1.73;;
23155;SDS011;11746;50.876;4.246;2024-03-25T13:29:10;4.57;;;1.60;;
23155;SDS011;11746;50.876;4.246;2024-03-25T13:31:36;3.90;;;1.38;;
23155;SDS011;11746;50.876;4.246;2024-03-25T13:34:06;4.25;;;1.40;;
23155;SDS011;11746;50.876;4.246;2024-03-25T13:36:59;3.90;;;1.58;;
23155;SDS011;11746;50.876;4.246;2024-03-25T13:39:49;4.57;;;1.30;;
23155;SDS011;11746;50.876;4.246;2024-03-25T13:42:21;4.35;;;1.88;;
23155;SDS011;11746;50.876;4.246;2024-03-25T13:44:49;4.32;;;1.20;;
23155;SDS011;11746;50.876;4.246;2024-03-25T13:47:19;2.40;;;1.25;;
23155;SDS011;11746;50.876;4.246;2024-03-25T13:50:04;3.25;;;1.30;;
23155;SDS011;11746;50.876;4.246;2024-03-25T13:52:41;3.10;;;1.10;;
23155;SDS011;11746;50.876;4.246;2024-03-25T13:55:16;3.15;;;1.20;;
23155;SDS011;11746;50.876;4.246;2024-03-25T13:57:49;4.50;;;1.23;;
23155;SDS011;11746;50.876;4.246;2024-03-25T14:00:33;4.43;;;1.63;;
23155;SDS011;11746;50.876;4.246;2024-03-25T14:03:05;3.35;;;1.20;;
23155;SDS011;11746;50.876;4.246;2024-03-25T14:05:36;3.72;;;1.08;;
23155;SDS011;11746;50.876;4.246;2024-03-25T14:08:14;3.45;;;1.10;;
23155;SDS011;11746;50.876;4.246;2024-03-25T14:10:56;2.88;;;1.40;;
23155;SDS011;11746;50.876;4.246;2024-03-25T14:13:35;3.42;;;1.27;;
23155;SDS011;11746;50.876;4.246;2024-03-25T14:16:01;1.95;;;0.98;;
23155;SDS011;11746;50.876;4.246;2024-03-25T14:18:29;5.03;;;1.40;;
23155;SDS011;11746;50.876;4.246;2024-03-25T14:20:58;5.53;;;1.80;;
23155;SDS011;11746;50.876;4.246;2024-03-25T14:23:25;3.72;;;1.40;;
23155;SDS011;11746;50.876;4.246;2024-03-25T14:25:53;3.88;;;1.27;;
23155;SDS011;11746;50.876;4.246;2024-03-25T14:28:19;2.63;;;1.05;;
23155;SDS011;11746;50.876;4.246;2024-03-25T14:30:48;5.00;;;1.63;;
23155;SDS011;11746;50.876;4.246;2024-03-25T14:33:17;4.45;;;1.40;;
23155;SDS011;11746;50.876;4.246;2024-03-25T14:35:42;3.55;;;1.30;;
23155;SDS011;11746;50.876;4.246;2024-03-25T14:38:20;4.70;;;2.35;;
23155;SDS011;11746;50.876;4.246;2024-03-25T14:40:56;3.83;;;1.73;;
23155;SDS011;11746;50.876;4.246;2024-03-25T14:44:12;5.22;;;2.00;;
23155;SDS011;11746;50.876;4.246;2024-03-25T14:47:06;3.25;;;1.30;;
23155;SDS011;11746;50.876;4.246;2024-03-25T14:49:38;4.38;;;1.20;;
23155;SDS011;11746;50.876;4.246;2024-03-25T14:52:23;3.55;;;1.35;;
23155;SDS011;11746;50.876;4.246;2024-03-25T14:55:14;3.75;;;1.33;;
23155;SDS011;11746;50.876;4.246;2024-03-25T14:57:41;4.30;;;1.40;;
23155;SDS011;11746;50.876;4.246;2024-03-25T15:00:15;4.70;;;1.50;;
23155;SDS011;11746;50.876;4.246;2024-03-25T15:02:48;3.47;;;1.30;;